Time;durP1;ratioP1;P1;durP2;ratioP2;P2;SDS_P1;SDS_P2;PMS_P1;PMS_P2;Temp;Humidity;BMP_temperature;BMP_pressure;BME280_temperature;BME280_humidity;BME280_pressure;Samples;Min_cycle;Max_cycle;Signal;HPM_P1;HPM_P2
2023/07/03 17:18:27;;;;;;;;;125.80;125.00;;;;;32.02;27.53;101241.03;5119850;27;49817;-71
2023/07/03 17:20:52;;;;;;;;;116.50;114.75;;;;;32.66;26.92;101237.03;5099548;27;50264;-72
2023/07/03 17:23:18;;;;;;;;;77.25;66.00;;;;;32.69;27.05;101235.97;5097031;27;49730;-74
2023/07/03 17:25:43;;;;;;;;;104.25;91.25;;;;;32.74;26.62;101239.28;5096626;27;49843;-73
2023/07/03 17:28:09;;;;;;;;;105.50;95.50;;;;;32.97;26.70;101238.69;5102943;27;50230;-73
2023/07/03 17:30:35;;;;;;;;;72.00;59.33;;;;;32.59;27.23;101238.41;5105075;27;49885;-72
2023/07/03 17:33:00;;;;;;;;;98.75;85.25;;;;;32.43;26.93;101230.38;5103812;27;49699;-73
2023/07/03 17:35:26;;;;;;;;;115.00;110.33;;;;;32.37;26.87;101240.75;5103884;27;50152;-74
2023/07/03 17:37:51;;;;;;;;;116.25;114.25;;;;;32.24;27.33;101245.19;5105989;27;49835;-74
2023/07/03 17:40:17;;;;;;;;;113.50;109.25;;;;;32.26;27.50;101235.94;5098674;27;50246;-72
2023/07/03 17:42:42;;;;;;;;;105.33;95.33;;;;;32.18;27.08;101236.41;5091052;27;61449;-71
2023/07/03 17:45:08;;;;;;;;;121.67;119.67;;;;;32.15;27.40;101247.50;5092215;27;60340;-71
2023/07/03 17:47:34;;;;;;;;;7.00;2.00;;;;;31.93;27.47;101240.72;5097393;27;49686;-71
2023/07/03 17:49:59;;;;;;;;;71.25;60.50;;;;;31.87;27.27;101242.00;5093106;27;49809;-71
2023/07/03 17:52:24;;;;;;;;;116.00;112.67;;;;;31.54;27.83;101242.13;5103742;27;63122;-72
2023/07/03 17:54:50;;;;;;;;;116.00;113.33;;;;;31.50;27.97;101240.56;5094477;27;50080;-74
2023/07/03 17:57:15;;;;;;;;;111.67;105.67;;;;;31.59;28.14;101248.16;5101728;27;49882;-74
2023/07/03 17:59:41;;;;;;;;;116.75;112.25;;;;;31.27;28.31;101242.81;5098227;27;49777;-73
2023/07/03 18:02:11;;;;;;;;;102.33;88.67;;;;;31.65;28.44;101239.63;5102406;27;50299;-73
2023/07/03 18:04:40;;;;;;;;;114.80;112.60;;;;;31.70;28.65;101239.38;5094209;27;51407;-72
2023/07/03 18:07:06;;;;;;;;;117.00;113.60;;;;;31.08;28.93;101247.50;5099028;27;50023;-72
2023/07/03 18:09:31;;;;;;;;;116.00;111.80;;;;;30.68;29.49;101238.00;5097774;27;49724;-83
2023/07/03 18:11:57;;;;;;;;;115.00;109.00;;;;;30.40;29.28;101239.53;5100468;27;50012;-80
2023/07/03 18:14:23;;;;;;;;;117.00;112.00;;;;;30.68;29.57;101247.00;5093529;27;51847;-82
2023/07/03 18:16:49;;;;;;;;;114.60;109.40;;;;;30.35;29.63;101244.28;5106864;27;50281;-80
2023/07/03 18:19:14;;;;;;;;;117.67;115.33;;;;;30.38;29.74;101240.53;5090246;27;50998;-75
2023/07/03 18:21:39;;;;;;;;;115.67;112.33;;;;;30.43;29.46;101243.88;5086909;27;54245;-86
2023/07/03 18:24:05;;;;;;;;;117.33;115.33;;;;;30.39;29.60;101236.88;5085700;27;51321;-86
2023/07/03 18:26:31;;;;;;;;;119.00;118.00;;;;;30.35;29.78;101238.00;5083181;27;49811;-69
2023/07/03 18:28:56;;;;;;;;;120.25;119.75;;;;;30.27;29.80;101243.81;5087115;27;50085;-77
2023/07/03 18:31:24;;;;;;;;;118.00;116.75;;;;;30.41;29.64;101241.25;5087453;27;49707;-76
2023/07/03 18:33:52;;;;;;;;;118.80;118.60;;;;;30.23;30.04;101246.78;5088333;27;50714;-77
2023/07/03 18:36:17;;;;;;;;;114.00;106.00;;;;;29.96;29.87;101249.97;5088939;27;49995;-76
2023/07/03 18:38:45;;;;;;;;;117.80;116.00;;;;;29.63;30.66;101258.88;5085705;27;50583;-81
2023/07/03 18:41:10;;;;;;;;;110.20;100.20;;;;;29.35;31.05;101248.53;5089644;27;50114;-80
2023/07/03 18:43:36;;;;;;;;;111.25;102.75;;;;;29.39;31.17;101254.66;5090261;27;59835;-76
2023/07/03 18:46:01;;;;;;;;;108.67;96.67;;;;;29.62;31.16;101257.09;5088070;27;49805;-72
2023/07/03 18:48:26;;;;;;;;;114.50;108.75;;;;;29.26;31.37;101264.34;5091029;27;50073;-73
2023/07/03 18:50:52;;;;;;;;;115.25;110.50;;;;;29.08;31.37;101264.28;5084035;27;50078;-76
2023/07/03 18:53:17;;;;;;;;;115.00;109.00;;;;;29.18;31.51;101262.00;5084238;27;50800;-73
2023/07/03 18:55:46;;;;;;;;;115.67;111.00;;;;;29.77;31.39;101258.16;5082705;27;50047;-77
2023/07/03 18:58:11;;;;;;;;;112.00;103.00;;;;;29.16;31.23;101266.63;5081447;27;49867;-72
2023/07/03 19:00:37;;;;;;;;;114.75;110.25;;;;;28.98;31.41;101262.97;5082225;27;50104;-70
2023/07/03 19:03:02;;;;;;;;;113.50;107.00;;;;;28.68;31.79;101257.16;5088398;27;51607;-74
2023/07/03 19:05:27;;;;;;;;;115.00;108.00;;;;;28.89;32.03;101274.22;5085567;27;49862;-70
2023/07/03 19:07:53;;;;;;;;;112.50;105.75;;;;;28.69;32.61;101276.94;5088281;27;49686;-74
2023/07/03 19:10:18;;;;;;;;;110.25;101.25;;;;;28.60;32.34;101274.66;5086103;27;52356;-73
2023/07/03 19:12:44;;;;;;;;;114.50;108.50;;;;;28.57;32.91;101278.41;5086744;27;50414;-72
2023/07/03 19:15:09;;;;;;;;;114.00;109.00;;;;;28.72;32.90;101269.56;5088339;27;49799;-73
2023/07/03 19:17:34;;;;;;;;;117.00;111.00;;;;;28.65;32.90;101283.41;5089457;27;49752;-74
2023/07/03 19:20:00;;;;;;;;;115.25;110.50;;;;;28.46;32.74;101286.09;5088450;27;49782;-73
2023/07/03 19:22:25;;;;;;;;;116.00;108.50;;;;;28.46;33.22;101284.25;5094451;27;50353;-76
2023/07/03 19:24:55;;;;;;;;;114.00;106.50;;;;;28.21;33.79;101289.88;5087979;27;49859;-74
2023/07/03 19:27:20;;;;;;;;;100.67;85.67;;;;;28.52;33.13;101291.22;5089941;27;49606;-76
2023/07/03 19:29:46;;;;;;;;;96.67;78.67;;;;;28.53;33.00;101284.88;5089482;27;49953;-76
2023/07/03 19:32:12;;;;;;;;;117.00;111.67;;;;;28.35;33.46;101291.97;5088139;27;50098;-87
2023/07/03 19:34:40;;;;;;;;;114.20;107.60;;;;;28.14;33.72;101301.00;5089761;27;50047;-82
2023/07/03 19:37:05;;;;;;;;;114.25;108.00;;;;;28.09;34.14;101306.59;5083549;27;50167;-76
2023/07/03 19:39:31;;;;;;;;;114.80;110.40;;;;;27.97;33.83;101308.94;5081282;27;49999;-76
2023/07/03 19:41:56;;;;;;;;;115.00;108.00;;;;;27.84;34.35;101309.47;5077723;27;49925;-77
2023/07/03 19:44:21;;;;;;;;;114.00;107.25;;;;;27.76;34.36;101317.00;5073924;27;49993;-77
2023/07/03 19:46:47;;;;;;;;;114.25;106.50;;;;;27.66;34.55;101318.31;5079953;27;58007;-77
2023/07/03 19:49:12;;;;;;;;;114.75;109.75;;;;;27.57;34.67;101324.06;5081064;27;49996;-74
2023/07/03 19:51:38;;;;;;;;;111.50;103.00;;;;;27.50;34.75;101309.06;5081953;27;55931;-75
2023/07/03 19:54:05;;;;;;;;;112.80;104.20;;;;;27.74;35.09;101326.09;5063902;27;50099;-77
2023/07/03 19:56:32;;;;;;;;;113.20;106.80;;;;;27.54;34.69;101329.59;5082043;27;49970;-75
2023/07/03 19:58:57;;;;;;;;;112.80;102.20;;;;;27.38;35.26;101330.19;5080512;27;49821;-75
2023/07/03 20:01:23;;;;;;;;;113.00;102.75;;;;;27.20;35.29;101335.44;5081679;27;50855;-76
2023/07/03 20:03:48;;;;;;;;;114.00;106.00;;;;;27.31;35.31;101330.50;5080872;27;50282;-76
2023/07/03 20:06:20;;;;;;;;;109.67;100.33;;;;;27.73;35.57;101337.84;5082610;27;50151;-75
2023/07/03 20:08:47;;;;;;;;;115.50;111.25;;;;;27.35;36.07;101333.03;5081236;27;50577;-75
2023/07/03 20:11:13;;;;;;;;;113.00;105.75;;;;;27.17;36.42;101338.25;5079287;27;50367;-74
2023/07/03 20:13:39;;;;;;;;;117.25;115.75;;;;;27.08;36.04;101347.56;5077338;27;50172;-80
2023/07/03 20:16:05;;;;;;;;;109.67;99.67;;;;;27.21;36.19;101345.28;5080176;27;49879;-79
2023/07/03 20:18:32;;;;;;;;;111.00;102.60;;;;;27.02;37.06;101350.47;5080398;27;50027;-76
2023/07/03 20:20:59;;;;;;;;;112.00;104.33;;;;;26.87;36.53;101349.25;5082924;27;51473;-77
2023/07/03 20:23:24;;;;;;;;;113.50;105.75;;;;;26.76;36.91;101367.63;5082122;27;49909;-76
2023/07/03 20:25:54;;;;;;;;;113.33;106.00;;;;;27.21;36.97;101369.53;5079875;27;49759;-76
2023/07/03 20:28:19;;;;;;;;;112.00;103.67;;;;;26.58;37.37;101370.97;5081119;27;50639;-77
2023/07/03 20:30:48;;;;;;;;;112.25;105.50;;;;;27.12;37.48;101378.88;5080941;27;70785;-76
2023/07/03 20:33:14;;;;;;;;;112.00;104.67;;;;;26.43;37.72;101373.28;5081157;27;50363;-76
2023/07/03 20:35:39;;;;;;;;;114.00;108.67;;;;;26.45;37.77;101373.25;5082148;27;50790;-76
2023/07/03 20:38:04;;;;;;;;;112.00;104.50;;;;;26.44;37.63;101374.16;5082061;27;50584;-76
2023/07/03 20:40:30;;;;;;;;;117.00;114.00;;;;;26.42;38.60;101373.34;5080656;27;65548;-77
2023/07/03 20:42:58;;;;;;;;;108.25;97.00;;;;;26.43;38.39;101377.78;5081246;27;50251;-76
2023/07/03 20:45:25;;;;;;;;;114.00;106.50;;;;;26.25;38.27;101380.16;5082064;27;49784;-76
2023/07/03 20:47:51;;;;;;;;;115.40;111.20;;;;;26.18;38.50;101381.31;5081529;27;50204;-76
2023/07/03 20:50:17;;;;;;;;;110.00;100.00;;;;;26.01;38.95;101381.00;5083248;27;51568;-76
2023/07/03 20:52:42;;;;;;;;;112.00;104.50;;;;;25.96;39.17;101394.59;5080020;27;50060;-77
2023/07/03 20:55:35;;;;;;;;;111.50;102.75;;;;;26.03;39.43;101391.69;5081087;27;60983;-77
2023/07/03 20:58:00;;;;;;;;;106.00;93.20;;;;;25.82;39.68;101383.41;5080209;27;50043;-77
2023/07/03 21:00:26;;;;;;;;;108.40;97.00;;;;;25.82;40.06;101388.78;5080176;27;50145;-76
2023/07/03 21:02:51;;;;;;;;;110.75;102.00;;;;;25.68;40.31;101386.53;5081775;27;49934;-77
2023/07/03 21:05:17;;;;;;;;;110.50;101.50;;;;;25.96;40.23;101385.63;5081047;27;58838;-76
2023/07/03 21:07:42;;;;;;;;;109.00;99.60;;;;;25.61;40.54;101387.63;5082103;27;58380;-76
2023/07/03 21:10:08;;;;;;;;;108.50;98.00;;;;;25.50;40.89;101384.41;5078275;27;74784;-76
2023/07/03 21:12:34;;;;;;;;;110.60;102.20;;;;;25.45;41.07;101389.03;5082898;27;49917;-76
2023/07/03 21:14:59;;;;;;;;;111.75;102.00;;;;;25.45;41.10;101394.41;5079053;27;50384;-76
2023/07/03 21:17:25;;;;;;;;;106.67;95.00;;;;;25.52;41.19;101387.03;5077336;27;55841;-76
2023/07/03 21:19:51;;;;;;;;;111.00;100.50;;;;;25.78;41.44;101392.50;5080502;27;51344;-76
2023/07/03 21:22:18;;;;;;;;;111.00;100.80;;;;;25.44;41.43;101400.72;5078540;27;50291;-75
